createdAt,value
2023-03-22T00:01:56.174Z,50.68
2023-03-22T00:04:22.497Z,50.23
2023-03-22T00:06:48.833Z,49.24
2023-03-22T00:09:15.148Z,46.64
2023-03-22T00:11:41.463Z,47.22
2023-03-22T00:14:07.799Z,47.32
2023-03-22T00:16:34.182Z,46.73
2023-03-22T00:19:00.548Z,47.22
2023-03-22T00:21:26.891Z,46.68
2023-03-22T00:23:53.216Z,45.67
2023-03-22T00:26:19.548Z,46.90
2023-03-22T00:28:45.881Z,47.27
2023-03-22T00:31:12.210Z,47.72
2023-03-22T00:33:38.551Z,47.37
2023-03-22T00:36:04.917Z,47.61
2023-03-22T00:38:41.618Z,46.65
2023-03-22T00:41:08.595Z,46.76
2023-03-22T00:43:34.904Z,46.94
2023-03-22T00:46:01.268Z,47.85
2023-03-22T00:48:27.597Z,47.02
2023-03-22T00:50:53.925Z,47.08
2023-03-22T00:53:20.256Z,47.58
2023-03-22T00:55:46.569Z,47.99
2023-03-22T00:58:12.901Z,46.77
2023-03-22T01:00:39.451Z,47.22
2023-03-22T01:03:05.980Z,47.65
2023-03-22T01:05:32.390Z,48.30
2023-03-22T01:07:58.710Z,48.44
2023-03-22T01:10:25.032Z,48.51
2023-03-22T01:12:51.358Z,48.59
2023-03-22T01:15:17.690Z,48.91
2023-03-22T01:17:44.008Z,48.96
2023-03-22T01:20:10.328Z,50.15
2023-03-22T01:22:36.637Z,51.23
2023-03-22T01:25:03.113Z,51.23
2023-03-22T01:27:29.440Z,51.37
2023-03-22T01:29:55.763Z,51.23
2023-03-22T01:32:22.091Z,51.49
2023-03-22T01:34:48.442Z,52.05
2023-03-22T01:37:14.765Z,52.38
2023-03-22T01:39:41.084Z,52.78
2023-03-22T01:42:07.397Z,52.85
2023-03-22T01:44:33.711Z,53.54
2023-03-22T01:47:00.059Z,53.95
2023-03-22T01:49:26.363Z,54.32
2023-03-22T01:51:52.665Z,54.58
2023-03-22T01:54:18.978Z,54.64
2023-03-22T01:56:45.317Z,54.53
2023-03-22T01:59:11.646Z,54.64
2023-03-22T02:01:38.117Z,54.63
2023-03-22T02:04:04.472Z,54.89
2023-03-22T02:06:30.814Z,55.40
2023-03-22T02:08:57.118Z,55.72
2023-03-22T02:11:23.438Z,56.19
2023-03-22T02:13:49.838Z,56.61
2023-03-22T02:16:16.230Z,56.04
2023-03-22T02:18:42.581Z,56.28
2023-03-22T02:21:08.906Z,56.80
2023-03-22T02:23:35.238Z,56.88
2023-03-22T02:26:01.584Z,56.47
2023-03-22T02:28:27.911Z,56.48
2023-03-22T02:30:54.262Z,56.70
2023-03-22T02:33:20.600Z,56.74
2023-03-22T02:35:46.987Z,56.94
2023-03-22T02:38:13.334Z,56.80
2023-03-22T02:40:39.860Z,56.27
2023-03-22T02:43:06.321Z,56.47
2023-03-22T02:45:32.644Z,55.81
2023-03-22T02:47:58.986Z,55.48
2023-03-22T02:50:25.325Z,55.77
2023-03-22T02:52:51.632Z,55.96
2023-03-22T02:55:18.030Z,56.59
2023-03-22T02:57:44.361Z,56.51
2023-03-22T03:00:10.665Z,56.51
2023-03-22T03:02:36.995Z,55.96
2023-03-22T03:05:03.369Z,56.14
2023-03-22T03:07:29.703Z,56.27
2023-03-22T03:09:56.039Z,56.60
2023-03-22T03:12:22.386Z,56.22
2023-03-22T03:14:48.715Z,57.30
2023-03-22T03:17:15.069Z,57.40
2023-03-22T03:19:41.406Z,57.38
2023-03-22T03:22:07.717Z,56.98
2023-03-22T03:24:34.027Z,57.24
2023-03-22T03:27:00.324Z,57.62
2023-03-22T03:29:26.661Z,57.59
2023-03-22T03:31:53.034Z,57.80
2023-03-22T03:34:19.424Z,57.82
2023-03-22T03:36:45.749Z,57.63
2023-03-22T03:39:12.084Z,58.04
2023-03-22T03:41:38.424Z,57.38
2023-03-22T03:44:04.730Z,57.45
2023-03-22T03:46:31.045Z,57.28
2023-03-22T03:48:57.354Z,56.77
2023-03-22T03:51:23.664Z,56.47
2023-03-22T03:53:49.980Z,56.21
2023-03-22T03:56:16.320Z,56.32
2023-03-22T03:58:42.641Z,56.56
2023-03-22T04:01:09.356Z,56.45
2023-03-22T04:03:35.688Z,56.62
2023-03-22T04:06:02.010Z,57.06
2023-03-22T04:08:28.323Z,55.91
2023-03-22T04:10:54.641Z,55.89
2023-03-22T04:13:20.952Z,55.78
2023-03-22T04:15:47.251Z,55.97
2023-03-22T04:18:13.572Z,55.89
2023-03-22T04:20:40.158Z,55.60
2023-03-22T04:23:06.718Z,56.20
2023-03-22T04:25:33.039Z,56.42
2023-03-22T04:27:59.343Z,56.72
2023-03-22T04:30:25.662Z,57.22
2023-03-22T04:32:51.968Z,57.19
2023-03-22T04:35:18.278Z,57.84
2023-03-22T04:37:44.610Z,57.51
2023-03-22T04:40:10.964Z,58.13
2023-03-22T04:42:37.276Z,57.59
2023-03-22T04:45:03.595Z,57.83
2023-03-22T04:47:29.905Z,58.16
2023-03-22T04:49:56.210Z,57.83
2023-03-22T04:52:22.530Z,57.62
2023-03-22T04:54:48.857Z,58.69
2023-03-22T04:57:15.158Z,58.15
2023-03-22T04:59:41.476Z,58.42
2023-03-22T05:02:07.792Z,57.89
2023-03-22T05:04:34.106Z,57.69
2023-03-22T05:07:00.527Z,58.54
2023-03-22T05:09:26.866Z,58.95
2023-03-22T05:11:53.192Z,58.78
2023-03-22T05:14:19.527Z,58.99
2023-03-22T05:16:45.910Z,58.86
2023-03-22T05:19:12.232Z,58.94
2023-03-22T05:21:38.552Z,59.26
2023-03-22T05:24:04.888Z,59.46
2023-03-22T05:26:31.225Z,59.23
2023-03-22T05:28:57.556Z,59.21
2023-03-22T05:31:23.962Z,58.69
2023-03-22T05:33:50.318Z,59.00
2023-03-22T05:36:16.629Z,58.59
2023-03-22T05:38:42.949Z,58.96
2023-03-22T05:41:09.277Z,58.42
2023-03-22T05:43:35.611Z,58.92
2023-03-22T05:46:01.933Z,59.35
2023-03-22T05:48:28.260Z,59.16
2023-03-22T05:50:54.569Z,59.67
2023-03-22T05:53:20.899Z,59.05
2023-03-22T05:55:47.217Z,59.59
2023-03-22T05:58:13.518Z,59.66
2023-03-22T06:00:40.063Z,59.19
2023-03-22T06:03:06.537Z,59.56
2023-03-22T06:05:32.892Z,59.51
2023-03-22T06:07:59.223Z,59.59
2023-03-22T06:10:25.534Z,59.89
2023-03-22T06:12:51.949Z,59.79
2023-03-22T06:15:18.296Z,60.03
2023-03-22T06:17:44.633Z,59.93
2023-03-22T06:20:10.963Z,60.86
2023-03-22T06:22:37.307Z,60.92
2023-03-22T06:25:03.633Z,61.48
2023-03-22T06:27:29.940Z,60.97
2023-03-22T06:29:56.270Z,61.50
2023-03-22T06:32:22.603Z,61.35
2023-03-22T06:34:48.931Z,61.14
2023-03-22T06:37:15.265Z,61.00
2023-03-22T06:39:41.578Z,61.29
2023-03-22T06:42:07.903Z,61.62
2023-03-22T06:44:34.253Z,59.83
2023-03-22T06:47:00.562Z,59.64
2023-03-22T06:49:26.872Z,59.40
2023-03-22T06:51:53.202Z,58.38
2023-03-22T06:54:19.526Z,60.52
2023-03-22T06:56:45.852Z,61.64
2023-03-22T06:59:12.182Z,59.96
2023-03-22T07:01:38.566Z,58.97
2023-03-22T07:04:05.049Z,58.38
2023-03-22T07:06:31.412Z,58.14
2023-03-22T07:08:57.731Z,58.77
2023-03-22T07:11:24.040Z,58.52
2023-03-22T07:13:50.355Z,57.83
2023-03-22T07:16:19.363Z,57.14
2023-03-22T07:18:46.218Z,57.47
2023-03-22T07:21:12.527Z,57.09
2023-03-22T07:23:38.844Z,56.67
2023-03-22T07:26:05.157Z,57.10
2023-03-22T07:28:31.471Z,56.60
2023-03-22T07:30:57.807Z,56.27
2023-03-22T07:33:24.129Z,56.00
2023-03-22T07:35:50.494Z,56.66
2023-03-22T07:38:16.816Z,55.71
2023-03-22T07:40:43.135Z,55.75
2023-03-22T07:43:09.451Z,55.67
2023-03-22T07:45:35.769Z,55.59
2023-03-22T07:48:02.148Z,55.08
2023-03-22T07:50:28.510Z,54.59
2023-03-22T07:52:54.862Z,55.30
2023-03-22T07:55:21.174Z,55.06
2023-03-22T07:57:47.498Z,54.16
2023-03-22T08:00:13.815Z,54.11
2023-03-22T08:02:40.214Z,53.59
2023-03-22T08:05:06.571Z,52.66
2023-03-22T08:07:32.890Z,52.91
2023-03-22T08:09:59.422Z,52.79
2023-03-22T08:12:25.744Z,52.97
2023-03-22T08:14:52.082Z,52.70
2023-03-22T08:17:18.402Z,53.25
2023-03-22T08:19:44.733Z,52.07
2023-03-22T08:22:11.047Z,51.27
2023-03-22T08:24:37.402Z,50.71
2023-03-22T08:27:03.745Z,51.77
2023-03-22T08:29:30.257Z,50.54
2023-03-22T08:31:56.585Z,50.60
2023-03-22T08:34:22.933Z,50.99
2023-03-22T08:36:49.266Z,49.96
2023-03-22T08:39:15.606Z,49.67
2023-03-22T08:41:41.944Z,49.83
2023-03-22T08:44:08.252Z,48.74
2023-03-22T08:46:34.609Z,49.09
2023-03-22T08:49:00.927Z,47.64
2023-03-22T08:51:27.247Z,47.88
2023-03-22T08:53:53.558Z,47.68
2023-03-22T08:56:19.883Z,46.89
2023-03-22T08:58:46.216Z,47.09
2023-03-22T09:01:12.640Z,46.99
2023-03-22T09:03:39.009Z,46.96
2023-03-22T09:06:05.330Z,46.82
2023-03-22T09:08:31.668Z,47.95
2023-03-22T09:10:57.979Z,46.59
2023-03-22T09:13:24.305Z,48.06
2023-03-22T09:15:50.645Z,47.86
2023-03-22T09:18:16.962Z,47.48
2023-03-22T09:20:43.650Z,47.92
2023-03-22T09:23:10.021Z,47.78
2023-03-22T09:25:36.353Z,48.16
2023-03-22T09:28:02.673Z,47.49
2023-03-22T09:30:29.022Z,47.64
2023-03-22T09:32:55.386Z,47.70
2023-03-22T09:35:21.746Z,47.48
2023-03-22T09:37:48.090Z,47.38
2023-03-22T09:40:14.405Z,46.28
2023-03-22T09:42:40.709Z,46.69
2023-03-22T09:45:07.042Z,46.06
2023-03-22T09:47:44.448Z,44.89
2023-03-22T09:50:11.310Z,45.92
2023-03-22T09:52:38.709Z,45.29
2023-03-22T09:55:05.010Z,45.91
2023-03-22T09:57:31.342Z,44.69
2023-03-22T09:59:57.677Z,45.31
2023-03-22T10:02:24.105Z,43.50
2023-03-22T10:04:50.467Z,44.47
2023-03-22T10:07:16.770Z,43.75
2023-03-22T10:09:43.094Z,44.17
2023-03-22T10:12:09.431Z,45.61
2023-03-22T10:14:35.768Z,44.82
2023-03-22T10:17:02.108Z,44.80
2023-03-22T10:19:28.430Z,42.79
2023-03-22T10:21:54.740Z,42.42
2023-03-22T10:24:21.083Z,41.12
2023-03-22T10:26:47.610Z,41.95
2023-03-22T10:29:13.950Z,42.16
2023-03-22T10:31:40.305Z,43.04
2023-03-22T10:34:06.639Z,43.56
2023-03-22T10:36:32.960Z,42.25
2023-03-22T10:38:59.272Z,43.29
2023-03-22T10:41:25.615Z,42.81
2023-03-22T10:43:51.954Z,41.64
2023-03-22T10:46:18.399Z,42.09
2023-03-22T10:48:44.794Z,39.78
2023-03-22T10:51:11.121Z,40.28
2023-03-22T10:53:37.448Z,41.76
2023-03-22T10:56:03.783Z,42.83
2023-03-22T10:58:30.111Z,42.05
2023-03-22T11:00:56.594Z,41.40
2023-03-22T11:03:23.042Z,38.97
2023-03-22T11:05:49.378Z,41.04
2023-03-22T11:08:15.708Z,40.38
2023-03-22T11:10:42.119Z,39.89
2023-03-22T11:13:08.466Z,39.07
2023-03-22T11:15:34.796Z,38.37
2023-03-22T11:18:01.128Z,38.33
2023-03-22T11:20:29.224Z,39.68
2023-03-22T11:22:56.219Z,39.79
2023-03-22T11:25:22.534Z,39.66
2023-03-22T11:27:48.858Z,40.80
2023-03-22T11:30:15.162Z,39.46
2023-03-22T11:32:41.549Z,41.09
2023-03-22T11:35:07.909Z,40.47
2023-03-22T11:37:34.228Z,39.52
2023-03-22T11:40:00.562Z,39.21
2023-03-22T11:42:26.917Z,39.82
2023-03-22T11:44:53.250Z,38.04
2023-03-22T11:47:19.577Z,38.96
2023-03-22T11:49:45.893Z,39.00
2023-03-22T11:52:12.225Z,39.19
2023-03-22T11:54:38.546Z,39.64
2023-03-22T11:57:04.866Z,38.25
2023-03-22T11:59:31.207Z,37.23
2023-03-22T12:01:57.532Z,37.65
2023-03-22T12:04:23.879Z,39.26
2023-03-22T12:06:50.377Z,37.37
2023-03-22T12:09:16.735Z,38.16
2023-03-22T12:11:43.062Z,38.57
2023-03-22T12:14:09.402Z,37.76
2023-03-22T12:16:35.879Z,35.79
2023-03-22T12:19:02.262Z,35.48
2023-03-22T12:21:28.595Z,36.45
2023-03-22T12:23:54.899Z,36.96
2023-03-22T12:26:21.210Z,38.30
2023-03-22T12:28:47.539Z,36.51
2023-03-22T12:31:13.914Z,36.78
2023-03-22T12:33:40.278Z,37.28
2023-03-22T12:36:06.649Z,36.07
2023-03-22T12:38:32.997Z,35.22
2023-03-22T12:40:59.306Z,36.49
2023-03-22T12:43:25.629Z,36.80
2023-03-22T12:45:51.933Z,35.36
2023-03-22T12:48:18.340Z,34.17
2023-03-22T12:50:44.727Z,35.97
2023-03-22T12:53:11.065Z,35.35
2023-03-22T12:55:37.374Z,34.19
2023-03-22T12:58:03.696Z,34.22
2023-03-22T13:00:30.048Z,32.17
2023-03-22T13:02:56.467Z,30.73
2023-03-22T13:05:22.828Z,33.48
2023-03-22T13:07:49.157Z,34.18
2023-03-22T13:10:15.474Z,35.34
2023-03-22T13:12:41.777Z,33.00
2023-03-22T13:15:08.115Z,31.50
2023-03-22T13:17:34.455Z,31.23
2023-03-22T13:20:00.792Z,33.88
2023-03-22T13:22:27.134Z,32.36
2023-03-22T13:24:53.433Z,32.51
2023-03-22T13:27:19.738Z,35.29
2023-03-22T13:29:46.101Z,33.38
2023-03-22T13:32:12.481Z,34.70
2023-03-22T13:34:38.897Z,32.99
2023-03-22T13:37:05.218Z,33.42
2023-03-22T13:39:31.580Z,33.65
2023-03-22T13:41:57.907Z,33.43
2023-03-22T13:44:24.245Z,31.95
2023-03-22T13:46:50.551Z,32.46
2023-03-22T13:49:17.146Z,32.96
2023-03-22T13:51:43.540Z,31.64
2023-03-22T13:54:09.848Z,32.56
2023-03-22T13:56:36.180Z,33.43
2023-03-22T13:59:02.491Z,34.26
2023-03-22T14:01:28.834Z,34.48
2023-03-22T14:03:55.240Z,31.63
2023-03-22T14:06:21.583Z,32.16
2023-03-22T14:08:47.903Z,33.36
2023-03-22T14:11:14.222Z,33.36
2023-03-22T14:13:40.532Z,33.01
2023-03-22T14:16:06.911Z,33.22
2023-03-22T14:18:33.253Z,32.80
2023-03-22T14:20:59.625Z,32.35
